Aviation Digital Data Service (ADDS)

Output produced by TAFs form (2350 UTC 18 July 2018)
found at http://www.aviationweather.gov/adds/tafs/
 
RJOO 182328Z 09005KT 040V130 CAVOK 32/20 Q1011 RMK A2986
TAF RJOO 182308Z 1900/2006 22005KT 9999 FEW030 
     BECMG 1908/1910 32005KT 
     BECMG 1918/1921 07004KT